Time;durP1;ratioP1;P1;durP2;ratioP2;P2;SDS_P1;SDS_P2;PMS_P1;PMS_P2;Temp;Humidity;BMP_temperature;BMP_pressure;BME280_temperature;BME280_humidity;BME280_pressure;Samples;Min_cycle;Max_cycle;Signal;HPM_P1;HPM_P2
2021/10/15 00:03:13;;;;;;;;;22.25;21.25;;;;;14.94;52.93;101251.91;5056900;28;45579;-85
2021/10/15 00:05:38;;;;;;;;;22.00;20.00;;;;;14.93;53.17;101252.00;5039481;28;45615;-86
2021/10/15 00:08:04;;;;;;;;;25.25;23.00;;;;;15.12;52.95;101284.72;5056854;28;45562;-86
2021/10/15 00:10:29;;;;;;;;;19.00;17.00;;;;;15.11;52.69;101283.03;5038774;28;45924;-86
2021/10/15 00:12:54;;;;;;;;;24.75;20.50;;;;;14.97;52.93;101270.13;5038211;28;45564;-85
2021/10/15 00:18:42;;;;;;;;;19.25;18.75;;;;;14.94;53.36;101273.00;5056157;28;45770;-86
2021/10/15 00:21:08;;;;;;;;;23.75;22.25;;;;;14.70;53.16;101230.06;5038007;28;47492;-84
2021/10/15 00:23:33;;;;;;;;;24.00;21.25;;;;;14.81;53.28;101255.59;5055895;28;45519;-86
2021/10/15 00:25:59;;;;;;;;;24.25;21.50;;;;;14.87;53.06;101270.97;5056266;28;45776;-85
2021/10/15 00:28:24;;;;;;;;;23.00;20.75;;;;;14.73;52.99;101242.19;5037448;28;47426;-86
2021/10/15 00:30:49;;;;;;;;;20.25;18.50;;;;;14.69;53.13;101242.41;5037857;28;46255;-87
2021/10/15 00:33:15;;;;;;;;;20.25;18.75;;;;;14.83;52.88;101259.81;5038565;28;45650;-85
2021/10/15 00:35:40;;;;;;;;;18.25;17.25;;;;;14.98;52.98;101286.78;5038382;28;45977;-85
2021/10/15 00:38:06;;;;;;;;;23.25;20.75;;;;;14.80;53.24;101261.84;5055854;28;46977;-85
2021/10/15 00:40:31;;;;;;;;;21.75;20.50;;;;;14.82;53.49;101268.69;5037766;28;47011;-86
2021/10/15 00:42:56;;;;;;;;;18.00;16.50;;;;;14.57;53.52;101230.22;5056331;28;45607;-85
2021/10/15 00:48:43;;;;;;;;;18.50;17.75;;;;;14.76;53.10;101255.13;5043066;27;45940;-84
2021/10/15 00:51:09;;;;;;;;;24.75;22.25;;;;;14.85;53.52;101264.94;5018078;28;47410;-86
2021/10/15 00:53:34;;;;;;;;;23.00;19.50;;;;;14.82;53.17;101265.22;5018051;28;46058;-86
2021/10/15 00:56:00;;;;;;;;;20.25;18.50;;;;;14.72;53.57;101254.53;5036953;28;45458;-85
2021/10/15 00:58:25;;;;;;;;;19.25;18.50;;;;;14.74;53.30;101260.50;5037234;28;45826;-85
2021/10/15 01:00:50;;;;;;;;;22.50;19.00;;;;;14.87;53.76;101279.72;5020232;28;48317;-85
2021/10/15 01:03:16;;;;;;;;;19.25;18.25;;;;;14.72;53.63;101235.22;5019627;28;45562;-87
2021/10/15 01:05:41;;;;;;;;;20.25;18.00;;;;;14.72;53.34;101248.41;5036445;28;45414;-84
2021/10/15 01:08:08;;;;;;;;;18.75;18.25;;;;;14.73;53.47;101242.19;5035693;28;46634;-84
2021/10/15 01:10:33;;;;;;;;;16.25;16.25;;;;;14.48;53.41;101214.25;5017285;28;48730;-84
2021/10/15 01:12:59;;;;;;;;;22.75;20.50;;;;;14.64;53.57;101233.19;5033987;28;45611;-85
2021/10/15 01:18:46;;;;;;;;;20.75;18.75;;;;;14.79;53.54;101254.91;5035194;28;46149;-85
2021/10/15 01:21:12;;;;;;;;;17.75;17.25;;;;;14.77;53.79;101265.56;5018081;28;48078;-85
2021/10/15 01:23:40;;;;;;;;;21.50;19.75;;;;;14.76;53.70;101263.88;5034061;28;45904;-86
2021/10/15 01:26:06;;;;;;;;;21.75;18.75;;;;;14.75;53.89;101258.72;5016721;28;45579;-85
2021/10/15 01:28:33;;;;;;;;;20.00;18.75;;;;;14.51;53.75;101214.03;5016880;28;48855;-85
2021/10/15 01:34:20;;;;;;;;;18.25;18.00;;;;;14.67;53.49;101233.81;5037019;28;45790;-85
2021/10/15 01:36:46;;;;;;;;;21.25;19.75;;;;;14.58;53.71;101220.47;5037640;28;45552;-84
2021/10/15 01:39:11;;;;;;;;;21.00;18.75;;;;;14.58;53.84;101226.59;5037405;28;45529;-85
2021/10/15 01:41:36;;;;;;;;;19.75;18.25;;;;;14.64;53.95;101244.56;5020476;28;46317;-86
2021/10/15 01:44:02;;;;;;;;;19.75;18.25;;;;;14.45;54.03;101217.13;5019017;28;45739;-84
2021/10/15 01:46:27;;;;;;;;;19.00;18.50;;;;;14.34;53.83;101193.34;5017951;28;45923;-86
2021/10/15 01:48:53;;;;;;;;;23.00;21.50;;;;;14.60;54.05;101234.38;5029016;28;48344;-87
2021/10/15 01:51:18;;;;;;;;;21.75;17.25;;;;;14.59;54.00;101240.63;5040420;28;47254;-86
2021/10/15 01:53:45;;;;;;;;;20.75;18.00;;;;;14.24;53.88;101180.06;5044005;28;45880;-85
2021/10/15 01:56:10;;;;;;;;;18.50;17.50;;;;;14.47;53.96;101208.13;5044959;28;45492;-87
2021/10/15 01:58:36;;;;;;;;;19.00;19.00;;;;;14.44;53.99;101207.53;5062672;28;45515;-86
2021/10/15 02:04:23;;;;;;;;;18.75;18.50;;;;;14.30;53.91;101184.84;5061262;28;45618;-85
2021/10/15 02:06:49;;;;;;;;;22.00;19.75;;;;;14.36;54.04;101196.72;5057280;28;45653;-86
2021/10/15 02:09:14;;;;;;;;;23.25;19.50;;;;;14.15;54.31;101167.56;5042246;28;47491;-83
2021/10/15 02:11:39;;;;;;;;;19.00;17.00;;;;;14.45;54.08;101212.69;5061064;28;46631;-85
2021/10/15 02:14:05;;;;;;;;;21.00;17.75;;;;;14.32;54.18;101190.00;5042898;28;45563;-87
2021/10/15 02:16:30;;;;;;;;;17.75;16.50;;;;;14.48;54.19;101223.00;5060691;28;45514;-86
2021/10/15 02:18:55;;;;;;;;;25.00;20.50;;;;;14.15;54.04;101173.69;5039062;28;47620;-86
2021/10/15 02:21:21;;;;;;;;;21.50;21.00;;;;;14.38;54.37;101208.84;5036440;28;48476;-85
2021/10/15 02:23:46;;;;;;;;;21.75;20.50;;;;;14.33;54.17;101200.41;5035940;28;45590;-85
2021/10/15 02:26:14;;;;;;;;;18.50;17.50;;;;;14.39;54.20;101213.16;5036653;28;45576;-85
2021/10/15 02:28:39;;;;;;;;;22.75;20.50;;;;;14.17;54.43;101182.31;5036007;28;46506;-86
2021/10/15 02:34:26;;;;;;;;;20.75;18.50;;;;;13.97;54.80;101137.38;5054354;28;45492;-86
2021/10/15 02:36:52;;;;;;;;;21.75;21.50;;;;;14.18;54.53;101181.38;5054858;28;45776;-86
2021/10/15 02:39:17;;;;;;;;;23.50;20.00;;;;;14.10;54.72;101164.44;5057234;28;46523;-85
2021/10/15 02:41:43;;;;;;;;;31.75;28.75;;;;;14.33;54.48;101191.66;5058155;28;46006;-85
2021/10/15 02:44:10;;;;;;;;;28.50;27.00;;;;;14.07;54.78;101148.88;5039761;28;45682;-86
2021/10/15 02:49:57;;;;;;;;;23.75;22.00;;;;;14.21;54.78;101182.91;5055869;28;46033;-86
2021/10/15 02:52:23;;;;;;;;;20.25;18.25;;;;;14.28;54.52;101192.88;5039639;28;47929;-85
2021/10/15 02:54:50;;;;;;;;;21.75;18.50;;;;;14.16;54.67;101180.63;5062903;28;45614;-86
2021/10/15 02:57:15;;;;;;;;;25.00;22.50;;;;;14.07;54.56;101172.59;5041476;28;45733;-86
2021/10/15 02:59:41;;;;;;;;;26.00;22.50;;;;;14.00;54.71;101166.13;5039202;28;47376;-85
2021/10/15 03:02:06;;;;;;;;;21.75;20.25;;;;;13.93;54.56;101149.94;5039407;28;46093;-86
2021/10/15 03:04:32;;;;;;;;;24.75;23.25;;;;;14.24;55.22;101196.72;5039816;28;45514;-86
2021/10/15 03:06:57;;;;;;;;;19.25;18.50;;;;;13.93;54.82;101143.84;5058822;28;45442;-85
2021/10/15 03:09:23;;;;;;;;;24.25;22.00;;;;;14.19;55.03;101180.41;5060446;28;45529;-86
2021/10/15 03:11:48;;;;;;;;;26.75;22.75;;;;;13.97;55.15;101151.41;5041721;28;48315;-86
2021/10/15 03:14:13;;;;;;;;;24.00;21.75;;;;;14.20;55.13;101195.25;5058292;28;45659;-85
2021/10/15 03:20:01;;;;;;;;;23.00;21.25;;;;;14.16;55.27;101192.97;5057412;28;45665;-86
2021/10/15 03:22:27;;;;;;;;;23.75;22.00;;;;;14.13;55.30;101190.59;5057664;28;46362;-85
2021/10/15 03:24:52;;;;;;;;;24.00;22.00;;;;;14.11;55.33;101182.78;5056555;28;45496;-85
2021/10/15 03:27:18;;;;;;;;;19.00;19.00;;;;;14.10;55.35;101188.16;5057388;28;45498;-85
2021/10/15 03:30:03;;;;;;;;;16.25;14.00;;;;;13.99;55.26;101172.34;5057857;28;45532;-86
2021/10/15 03:32:28;;;;;;;;;16.25;15.25;;;;;13.59;55.56;101116.59;5039561;28;48327;-86
2021/10/15 03:42:51;;;;;;;;;26.50;22.25;;;;;13.81;55.98;101178.06;4858582;29;45620;-85
2021/10/15 03:45:37;;;;;;;;;19.00;16.00;;;;;13.30;56.26;101114.34;4858191;29;47979;-85
2021/10/15 03:48:06;;;;;;;;;16.00;14.75;;;;;13.50;56.34;101152.31;4828490;29;45587;-84
2021/10/15 03:51:05;;;;;;;;;;;;;;;;;;;;;
2021/10/15 03:53:31;;;;;;;;;15.00;14.75;;;;;13.63;56.21;101174.16;4844307;29;75277;-85
2021/10/15 03:55:56;;;;;;;;;18.25;16.50;;;;;13.50;56.17;101162.84;4847106;29;46186;-86
2021/10/15 03:58:21;;;;;;;;;19.00;15.25;;;;;13.20;56.29;101125.66;4828815;29;46050;-84
2021/10/15 04:00:47;;;;;;;;;19.50;15.25;;;;;13.22;56.36;101132.50;4842394;29;45683;-85
2021/10/15 04:03:12;;;;;;;;;20.50;17.00;;;;;13.27;56.70;101142.69;4842207;29;46317;-85
2021/10/15 04:05:38;;;;;;;;;20.00;18.75;;;;;13.45;56.91;101181.63;4842196;29;45766;-85
2021/10/15 04:08:05;;;;;;;;;21.00;18.25;;;;;13.25;57.21;101147.22;4842678;29;45695;-84
2021/10/15 04:10:30;;;;;;;;;29.25;22.25;;;;;13.32;57.22;101169.50;4843523;29;45684;-86
2021/10/15 04:12:56;;;;;;;;;27.25;25.00;;;;;13.20;57.20;101147.56;4870092;29;45762;-84
2021/10/15 04:15:21;;;;;;;;;25.50;21.50;;;;;13.19;57.35;101150.28;4895850;29;47572;-85
2021/10/15 04:17:46;;;;;;;;;19.25;18.25;;;;;12.98;57.44;101135.09;4899549;29;46112;-84
2021/10/15 04:20:12;;;;;;;;;22.50;20.00;;;;;13.13;57.38;101164.72;4914220;28;45611;-83
2021/10/15 04:22:38;;;;;;;;;23.25;18.50;;;;;13.17;57.74;101179.34;4920480;28;48571;-85
2021/10/15 04:25:04;;;;;;;;;18.00;16.50;;;;;13.08;57.63;101156.31;4923785;28;46449;-83
2021/10/15 04:27:30;;;;;;;;;18.75;17.00;;;;;12.81;57.81;101118.84;4942504;28;45619;-84
2021/10/15 04:29:55;;;;;;;;;19.75;18.00;;;;;12.97;57.78;101156.25;4957382;28;45669;-85
2021/10/15 04:35:43;;;;;;;;;20.00;19.50;;;;;12.73;57.80;101111.53;5042132;28;45717;-84
2021/10/15 04:38:09;;;;;;;;;23.00;18.50;;;;;12.97;58.15;101154.44;5023822;28;46136;-86
2021/10/15 04:40:35;;;;;;;;;20.75;19.75;;;;;12.86;58.21;101138.59;5037724;28;45632;-83
2021/10/15 04:43:00;;;;;;;;;19.25;17.50;;;;;12.93;58.37;101146.91;5036850;28;46673;-87
2021/10/15 04:45:26;;;;;;;;;21.00;20.50;;;;;12.95;58.48;101152.91;5038639;28;45717;-84
2021/10/15 04:47:51;;;;;;;;;23.25;21.50;;;;;12.82;58.36;101137.16;5036941;28;45582;-84
2021/10/15 04:50:16;;;;;;;;;25.00;23.75;;;;;12.78;58.42;101132.22;5032559;28;45983;-85
2021/10/15 04:52:42;;;;;;;;;25.25;22.00;;;;;12.59;58.53;101090.63;5057311;28;45585;-84
2021/10/15 04:55:12;;;;;;;;;25.25;23.25;;;;;12.86;58.74;101135.13;5055287;28;47010;-84
2021/10/15 04:57:37;;;;;;;;;24.75;21.50;;;;;12.83;58.90;101132.72;5038311;28;45870;-84
2021/10/15 05:00:07;;;;;;;;;27.00;23.50;;;;;12.54;59.00;101087.50;5038057;28;45641;-86
2021/10/15 05:05:54;;;;;;;;;24.00;23.50;;;;;12.69;59.12;101125.81;5056253;28;45774;-86
2021/10/15 05:08:21;;;;;;;;;23.75;21.25;;;;;12.67;59.13;101121.63;5054751;28;45782;-85
2021/10/15 05:10:47;;;;;;;;;22.25;21.00;;;;;12.67;59.16;101124.28;5056573;28;45763;-84
2021/10/15 05:13:14;;;;;;;;;26.00;24.75;;;;;12.46;59.26;101090.69;5055823;28;46784;-85
2021/10/15 05:15:43;;;;;;;;;28.50;23.75;;;;;12.49;59.26;101092.25;5057121;28;46200;-84
2021/10/15 05:18:12;;;;;;;;;27.00;24.25;;;;;12.74;59.41;101141.28;5061081;28;45702;-85
2021/10/15 05:20:40;;;;;;;;;25.75;21.50;;;;;12.26;59.17;101067.59;5064328;28;45912;-84
2021/10/15 05:23:07;;;;;;;;;30.00;25.50;;;;;12.72;59.44;101143.19;5062662;28;48594;-83
2021/10/15 05:25:33;;;;;;;;;27.00;24.75;;;;;12.59;59.37;101127.44;5046143;28;47145;-84
2021/10/15 05:27:58;;;;;;;;;27.00;25.00;;;;;12.41;59.63;101095.44;5064276;28;45816;-84
2021/10/15 05:30:24;;;;;;;;;26.00;22.25;;;;;12.70;59.47;101140.66;5063660;28;45576;-84
2021/10/15 05:36:11;;;;;;;;;27.50;24.25;;;;;12.66;59.68;101143.63;5065291;28;45829;-83
2021/10/15 05:38:37;;;;;;;;;23.75;23.75;;;;;12.53;59.74;101114.72;5062214;28;45547;-84
2021/10/15 05:41:02;;;;;;;;;29.75;27.25;;;;;12.41;59.87;101108.56;5065661;28;45400;-82
2021/10/15 05:43:27;;;;;;;;;25.75;24.75;;;;;12.62;59.92;101140.38;5059676;28;48373;-84
2021/10/15 05:45:53;;;;;;;;;29.75;27.25;;;;;12.57;59.92;101142.50;5054624;28;47254;-84
2021/10/15 05:48:18;;;;;;;;;26.25;26.00;;;;;12.47;60.03;101123.06;5055592;28;45735;-84
2021/10/15 05:50:44;;;;;;;;;25.50;24.25;;;;;12.34;60.24;101109.94;5058951;28;46012;-83
2021/10/15 05:53:13;;;;;;;;;19.75;17.25;;;;;12.50;60.41;101144.72;5062149;28;45585;-84
2021/10/15 06:01:06;;;;;;;;;32.25;29.75;;;;;12.46;60.41;101142.41;5056297;28;45755;-84
2021/10/15 06:03:32;;;;;;;;;29.25;27.50;;;;;12.40;60.26;101132.31;5057092;28;48427;-84
2021/10/15 06:16:25;;;;;;;;;22.50;21.50;;;;;12.11;60.33;101097.56;5064479;28;45514;-84
2021/10/15 06:19:08;;;;;;;;;23.75;22.50;;;;;12.38;60.54;101128.94;5063906;28;45765;-83
2021/10/15 06:21:34;;;;;;;;;8.00;5.00;;;;;12.35;60.57;101129.19;5058571;28;45777;-84
2021/10/15 06:24:00;;;;;;;;;27.75;22.75;;;;;12.39;60.93;101143.78;5055794;28;45781;-85
2021/10/15 06:26:25;;;;;;;;;20.75;19.75;;;;;11.98;60.64;101078.38;5055673;28;45920;-82
2021/10/15 06:28:50;;;;;;;;;23.50;21.75;;;;;12.49;60.80;101163.19;5056299;28;45646;-85
2021/10/15 06:31:16;;;;;;;;;24.25;20.00;;;;;12.48;60.64;101165.00;5055449;28;45883;-84
2021/10/15 06:33:41;;;;;;;;;23.50;19.50;;;;;12.30;60.56;101131.28;5059389;28;46543;-84
2021/10/15 06:36:07;;;;;;;;;24.50;23.00;;;;;12.38;60.33;101150.81;5053939;28;47950;-85
2021/10/15 06:38:32;;;;;;;;;23.00;21.00;;;;;12.42;60.87;101147.00;5056521;28;45633;-83
2021/10/15 06:40:58;;;;;;;;;24.50;21.75;;;;;12.46;60.56;101151.13;5055342;28;45878;-84
2021/10/15 06:43:24;;;;;;;;;23.50;22.00;;;;;12.48;60.81;101145.75;5057721;28;46822;-84
2021/10/15 06:45:50;;;;;;;;;25.25;22.25;;;;;12.48;60.80;101146.59;5055378;28;47345;-79
2021/10/15 06:51:38;;;;;;;;;26.00;24.00;;;;;12.62;60.79;101148.25;5055450;28;45673;-77
2021/10/15 06:54:03;;;;;;;;;29.75;26.50;;;;;12.58;60.92;101152.03;5057773;28;46266;-79
2021/10/15 06:56:29;;;;;;;;;28.25;25.75;;;;;12.71;60.58;101160.75;5058251;28;46542;-76
2021/10/15 06:58:55;;;;;;;;;24.75;23.50;;;;;12.75;60.76;101156.94;5058143;28;45522;-79
2021/10/15 07:01:21;;;;;;;;;56.75;45.25;;;;;12.80;60.57;101156.59;5056945;28;45482;-79
2021/10/15 07:03:47;;;;;;;;;56.00;45.25;;;;;12.81;60.70;101147.78;5056435;28;46452;-77
2021/10/15 07:06:12;;;;;;;;;28.75;26.50;;;;;12.89;60.71;101153.34;5055256;28;46090;-76
2021/10/15 07:08:38;;;;;;;;;23.75;22.25;;;;;12.89;60.55;101156.81;5054650;28;45652;-78
2021/10/15 07:11:03;;;;;;;;;24.75;24.50;;;;;12.93;60.68;101153.00;5055546;28;45776;-77
2021/10/15 07:13:29;;;;;;;;;21.75;21.00;;;;;12.98;60.80;101160.56;5054592;28;46165;-76
2021/10/15 07:15:54;;;;;;;;;25.25;23.00;;;;;12.95;60.26;101150.28;5054607;28;45786;-77
2021/10/15 07:21:41;;;;;;;;;22.50;20.75;;;;;13.06;60.64;101160.84;5053669;28;45542;-76
2021/10/15 07:24:06;;;;;;;;;26.25;21.00;;;;;13.08;60.64;101179.13;5054692;28;45666;-76
2021/10/15 07:26:32;;;;;;;;;21.75;20.00;;;;;13.09;60.67;101179.03;5057764;28;46306;-76
2021/10/15 07:28:58;;;;;;;;;26.50;23.00;;;;;13.08;60.45;101174.72;5058115;28;45904;-77
2021/10/15 07:31:23;;;;;;;;;26.00;22.75;;;;;13.13;60.16;101190.19;5057498;28;45625;-77
2021/10/15 07:37:10;;;;;;;;;29.75;27.75;;;;;13.15;60.64;101188.31;5056071;28;45562;-76
2021/10/15 07:39:36;;;;;;;;;29.00;26.50;;;;;13.11;60.84;101184.19;5056315;28;45526;-76
2021/10/15 07:42:03;;;;;;;;;26.00;24.75;;;;;13.19;60.16;101187.97;5056467;28;45501;-77
2021/10/15 07:44:31;;;;;;;;;28.00;23.75;;;;;13.22;60.11;101187.75;5056055;28;47457;-76
2021/10/15 07:46:56;;;;;;;;;26.00;24.00;;;;;13.25;60.37;101182.25;5056012;28;46204;-78
2021/10/15 07:49:23;;;;;;;;;26.50;24.25;;;;;13.27;60.06;101183.00;5055860;28;45656;-78
2021/10/15 07:51:48;;;;;;;;;19.25;17.50;;;;;13.31;60.12;101180.97;5056155;28;45521;-79
2021/10/15 07:54:14;;;;;;;;;26.00;25.25;;;;;13.37;60.02;101186.63;5056286;28;46188;-76
2021/10/15 07:56:39;;;;;;;;;28.75;27.50;;;;;13.40;60.58;101189.03;5055811;28;47124;-77
2021/10/15 07:59:05;;;;;;;;;29.00;26.00;;;;;13.47;60.48;101194.69;5054927;28;45522;-77
2021/10/15 08:01:30;;;;;;;;;34.00;33.00;;;;;13.51;60.44;101193.50;5055883;28;45740;-77
2021/10/15 08:07:17;;;;;;;;;33.25;29.50;;;;;13.62;60.15;101195.34;5055459;28;45729;-77
2021/10/15 08:09:42;;;;;;;;;31.75;29.75;;;;;13.65;60.24;101195.97;5055847;28;45613;-75
2021/10/15 08:12:08;;;;;;;;;32.50;29.50;;;;;13.67;60.00;101186.16;5055981;28;45669;-77
2021/10/15 08:14:33;;;;;;;;;32.50;27.00;;;;;13.66;60.45;101184.47;5055720;28;46577;-77
2021/10/15 08:16:59;;;;;;;;;34.75;31.00;;;;;13.78;60.17;101198.50;5055295;28;46171;-77
2021/10/15 08:19:24;;;;;;;;;34.00;30.50;;;;;13.80;60.20;101200.09;5055678;28;45503;-77
2021/10/15 08:21:50;;;;;;;;;33.25;29.75;;;;;13.81;60.22;101193.88;5055748;28;45655;-77
2021/10/15 08:24:15;;;;;;;;;30.00;27.75;;;;;13.82;59.95;101190.25;5055703;28;45652;-77
2021/10/15 08:26:41;;;;;;;;;31.50;29.25;;;;;13.85;59.73;101194.47;5055771;28;46186;-77
2021/10/15 08:29:07;;;;;;;;;33.00;30.25;;;;;13.88;59.83;101189.78;5055540;28;45921;-77
2021/10/15 08:31:32;;;;;;;;;38.25;35.00;;;;;13.92;60.14;101202.75;5055346;28;45816;-76
2021/10/15 08:37:19;;;;;;;;;39.25;33.25;;;;;13.96;59.57;101197.13;5054321;28;45653;-78
2021/10/15 08:39:45;;;;;;;;;34.75;32.00;;;;;13.98;59.61;101189.94;5055201;28;46087;-78
2021/10/15 08:42:10;;;;;;;;;37.50;34.50;;;;;14.02;60.04;101198.47;5055131;28;45495;-76
2021/10/15 08:44:38;;;;;;;;;34.00;32.50;;;;;14.03;59.64;101194.88;5054962;28;46113;-76
2021/10/15 08:47:05;;;;;;;;;30.50;28.75;;;;;14.05;59.71;101199.06;5054837;28;45633;-77
2021/10/15 08:49:31;;;;;;;;;33.00;31.75;;;;;14.09;59.56;101211.03;5055033;28;45680;-76
2021/10/15 08:51:56;;;;;;;;;32.00;30.50;;;;;14.08;59.93;101198.00;5054747;28;45612;-77
2021/10/15 08:54:22;;;;;;;;;35.00;32.00;;;;;14.15;59.79;101205.31;5054422;28;45628;-75
2021/10/15 08:56:47;;;;;;;;;33.75;32.50;;;;;14.13;59.55;101195.84;5054345;28;46653;-77
2021/10/15 08:59:19;;;;;;;;;31.75;29.25;;;;;14.22;59.87;101214.44;5054521;28;45578;-76
2021/10/15 09:01:47;;;;;;;;;32.25;30.50;;;;;14.21;59.39;101201.34;5054877;28;45525;-77
2021/10/15 09:07:35;;;;;;;;;31.25;28.75;;;;;14.33;59.19;101207.50;5054642;28;45830;-77
2021/10/15 09:10:18;;;;;;;;;33.50;31.75;;;;;14.35;59.64;101214.34;5057312;28;45686;-75
2021/10/15 09:12:46;;;;;;;;;32.75;27.50;;;;;14.33;59.40;101204.84;5060154;28;45659;-76
2021/10/15 09:15:11;;;;;;;;;36.00;32.25;;;;;14.36;59.25;101209.91;5059624;28;45560;-77
2021/10/15 09:17:51;;;;;;;;;34.25;31.25;;;;;14.35;59.30;101203.78;5060449;28;45979;-77
2021/10/15 09:20:28;;;;;;;;;39.25;33.00;;;;;14.43;59.33;101211.13;5059862;28;45643;-77
2021/10/15 09:22:53;;;;;;;;;38.25;33.25;;;;;14.46;59.04;101211.75;5059700;28;45537;-76
2021/10/15 09:25:19;;;;;;;;;34.25;32.00;;;;;14.50;58.81;101220.25;5055664;28;45643;-76
2021/10/15 09:27:47;;;;;;;;;35.00;32.25;;;;;14.51;58.92;101224.56;5054595;28;46581;-77
2021/10/15 09:30:21;;;;;;;;;32.25;29.00;;;;;14.54;59.17;101219.03;5054779;28;45699;-78
2021/10/15 09:32:50;;;;;;;;;34.00;32.00;;;;;14.55;58.90;101234.75;5054280;28;45951;-77
2021/10/15 09:35:21;;;;;;;;;32.50;31.75;;;;;14.58;58.88;101238.94;5054128;28;47582;-75
2021/10/15 09:37:48;;;;;;;;;34.00;32.00;;;;;14.61;58.53;101238.72;5053897;28;46943;-76
2021/10/15 09:40:19;;;;;;;;;35.25;31.50;;;;;14.58;58.89;101234.50;5054339;28;45966;-75
2021/10/15 09:42:57;;;;;;;;;33.00;31.50;;;;;14.64;58.86;101236.66;5054050;28;45781;-77
2021/10/15 09:45:25;;;;;;;;;29.50;29.00;;;;;14.61;58.87;101226.38;5054029;28;46336;-74
2021/10/15 09:47:59;;;;;;;;;32.75;31.50;;;;;14.70;58.51;101241.47;5052766;28;47184;-78
2021/10/15 09:50:27;;;;;;;;;33.50;32.50;;;;;14.71;58.53;101229.13;5054021;28;46114;-75
2021/10/15 09:52:55;;;;;;;;;34.25;32.00;;;;;14.78;58.43;101232.97;5054050;28;45569;-77
2021/10/15 09:55:31;;;;;;;;;34.00;31.25;;;;;14.82;58.05;101230.91;5053852;28;47464;-76
2021/10/15 09:58:19;;;;;;;;;36.25;30.75;;;;;14.85;58.33;101233.28;5044947;28;46499;-74
2021/10/15 10:00:47;;;;;;;;;33.00;30.25;;;;;14.89;58.18;101230.31;5053653;28;45519;-77
2021/10/15 10:03:17;;;;;;;;;37.50;31.50;;;;;14.96;58.19;101236.75;5054010;28;45774;-77
2021/10/15 10:05:43;;;;;;;;;38.25;33.25;;;;;14.96;57.83;101230.66;5053612;28;48922;-77
2021/10/15 10:08:12;;;;;;;;;34.75;32.00;;;;;15.04;57.90;101238.81;5053557;28;45554;-77
2021/10/15 10:10:38;;;;;;;;;36.25;32.25;;;;;15.09;57.85;101236.63;5053799;28;45574;-76
2021/10/15 10:13:06;;;;;;;;;33.00;30.50;;;;;15.14;57.75;101239.75;5054180;28;45636;-76
2021/10/15 10:15:35;;;;;;;;;32.00;30.00;;;;;15.13;58.08;101233.63;5053643;28;45623;-77
2021/10/15 10:18:29;;;;;;;;;34.50;33.00;;;;;15.22;57.60;101241.78;5053238;28;46022;-77
2021/10/15 10:21:03;;;;;;;;;32.50;31.00;;;;;15.28;57.71;101242.09;5053550;28;45868;-79
2021/10/15 10:23:31;;;;;;;;;34.00;32.50;;;;;15.35;57.62;101248.59;5053492;28;45534;-77
2021/10/15 10:26:02;;;;;;;;;33.25;29.75;;;;;15.36;57.81;101247.63;5053830;28;45899;-77
2021/10/15 10:28:29;;;;;;;;;35.50;31.50;;;;;15.45;57.62;101246.88;5053398;28;46198;-75
2021/10/15 10:30:57;;;;;;;;;29.00;26.25;;;;;15.44;57.59;101242.53;5053457;28;45627;-77
2021/10/15 10:33:24;;;;;;;;;34.00;30.00;;;;;15.50;57.42;101246.50;5053464;28;45668;-77
2021/10/15 10:35:52;;;;;;;;;31.50;28.25;;;;;15.55;57.46;101246.19;5053536;28;46380;-78
2021/10/15 10:38:26;;;;;;;;;32.75;28.25;;;;;15.59;57.52;101251.06;5052521;28;46087;-78
2021/10/15 10:41:00;;;;;;;;;26.00;25.00;;;;;15.63;57.24;101244.56;5052437;28;45959;-75
2021/10/15 10:43:35;;;;;;;;;29.00;25.00;;;;;15.61;57.52;101238.56;5052604;28;45615;-78
2021/10/15 10:46:15;;;;;;;;;17.75;16.75;;;;;15.66;57.29;101241.66;5052214;28;47740;-78
2021/10/15 10:48:50;;;;;;;;;24.25;22.50;;;;;15.72;57.74;101246.44;5052119;28;46382;-77
2021/10/15 10:51:24;;;;;;;;;26.00;20.00;;;;;15.74;57.64;101247.16;5052030;28;45869;-77
2021/10/15 10:54:07;;;;;;;;;23.75;21.75;;;;;15.78;57.68;101251.22;5052295;28;45692;-77
2021/10/15 10:56:39;;;;;;;;;24.25;21.00;;;;;15.81;57.66;101248.34;5052455;28;45875;-77
2021/10/15 10:59:25;;;;;;;;;23.00;19.75;;;;;15.85;57.60;101251.56;5053188;28;46542;-76
2021/10/15 11:01:50;;;;;;;;;21.75;20.00;;;;;15.88;57.68;101246.84;5055918;28;45687;-77
2021/10/15 11:04:25;;;;;;;;;23.25;20.25;;;;;15.94;57.80;101250.78;5056108;28;45612;-79
2021/10/15 11:07:02;;;;;;;;;24.75;20.50;;;;;15.97;57.73;101250.56;5055738;28;45690;-77
2021/10/15 11:09:32;;;;;;;;;23.25;21.75;;;;;15.99;57.79;101242.47;5055950;28;46067;-78
2021/10/15 11:11:57;;;;;;;;;21.75;21.00;;;;;15.94;57.62;101216.44;5055766;28;45550;-77
2021/10/15 11:14:44;;;;;;;;;23.00;22.00;;;;;16.16;57.71;101244.53;5055597;28;45990;-78
2021/10/15 11:17:11;;;;;;;;;23.00;21.25;;;;;16.22;57.76;101231.66;5055520;28;46529;-78
2021/10/15 11:19:37;;;;;;;;;18.75;17.75;;;;;16.24;57.30;101226.25;5055363;28;46137;-78
2021/10/15 11:22:02;;;;;;;;;24.25;22.50;;;;;16.31;57.65;101241.44;5037483;28;45784;-77
2021/10/15 11:24:28;;;;;;;;;20.75;18.75;;;;;16.25;57.70;101219.97;5037663;28;45536;-77
2021/10/15 11:26:55;;;;;;;;;19.25;17.75;;;;;16.29;57.60;101214.31;5055737;28;45598;-77
2021/10/15 11:29:20;;;;;;;;;20.50;18.75;;;;;16.43;57.72;101228.13;5055733;28;47360;-78
2021/10/15 11:31:57;;;;;;;;;20.75;16.50;;;;;16.52;57.55;101228.19;5056035;28;45616;-77
2021/10/15 11:34:23;;;;;;;;;24.00;20.00;;;;;16.57;57.52;101233.09;5056111;28;45739;-77
2021/10/15 11:37:03;;;;;;;;;19.75;19.50;;;;;16.58;57.47;101225.00;5055588;28;46683;-77
2021/10/15 11:39:29;;;;;;;;;19.00;18.25;;;;;16.58;57.28;101214.44;5055979;28;46605;-77
2021/10/15 11:41:54;;;;;;;;;19.00;17.50;;;;;16.70;57.61;101224.00;5055795;28;45744;-77
2021/10/15 11:44:45;;;;;;;;;17.75;16.75;;;;;16.76;57.38;101225.25;5056291;28;45740;-77
2021/10/15 11:47:11;;;;;;;;;19.50;18.25;;;;;16.78;57.23;101218.88;5053283;28;45687;-77
2021/10/15 11:49:38;;;;;;;;;19.00;17.00;;;;;16.82;56.83;101214.16;5056618;28;45718;-77
2021/10/15 11:52:03;;;;;;;;;17.50;14.50;;;;;16.79;57.46;101206.47;5055743;28;45520;-76
2021/10/15 11:54:33;;;;;;;;;15.50;15.00;;;;;16.88;56.81;101200.38;5056047;28;46021;-77
2021/10/15 11:56:59;;;;;;;;;15.50;14.50;;;;;16.95;56.85;101211.28;5055683;28;45722;-77
2021/10/15 11:59:25;;;;;;;;;18.75;18.50;;;;;16.98;56.89;101203.88;5055814;28;46000;-76
2021/10/15 12:01:51;;;;;;;;;16.75;16.75;;;;;17.05;56.88;101212.13;5055705;28;45639;-77
2021/10/15 12:04:16;;;;;;;;;21.75;19.75;;;;;17.08;56.78;101207.38;5055712;28;45654;-77
2021/10/15 12:06:46;;;;;;;;;25.50;23.00;;;;;17.11;56.99;101204.47;5055617;28;46640;-78
2021/10/15 12:09:12;;;;;;;;;21.25;20.75;;;;;17.13;56.73;101193.75;5055507;28;46353;-77
2021/10/15 12:12:07;;;;;;;;;19.25;19.00;;;;;17.16;56.71;101198.78;5054319;28;45706;-77
2021/10/15 12:14:35;;;;;;;;;18.75;18.50;;;;;17.14;56.69;101192.78;4993620;28;45744;-76
2021/10/15 12:17:03;;;;;;;;;17.00;16.00;;;;;17.19;56.76;101195.84;4993383;28;45639;-77
2021/10/15 12:19:31;;;;;;;;;19.25;17.50;;;;;17.21;56.46;101199.19;4993591;28;46192;-77
2021/10/15 12:21:56;;;;;;;;;19.00;17.50;;;;;17.23;56.89;101196.41;4993027;28;45787;-78
2021/10/15 12:24:35;;;;;;;;;14.67;14.67;;;;;17.25;56.41;101197.94;4993347;28;45764;-77
2021/10/15 12:27:26;;;;;;;;;20.00;16.25;;;;;17.29;56.50;101195.84;4993112;28;47322;-78
2021/10/15 12:29:57;;;;;;;;;15.50;15.25;;;;;17.31;56.71;101201.84;4993178;28;45748;-77
2021/10/15 12:32:28;;;;;;;;;17.25;15.00;;;;;17.34;56.57;101196.28;4992978;28;46101;-77
2021/10/15 12:35:13;;;;;;;;;17.25;15.75;;;;;17.35;56.54;101192.66;4993473;28;45839;-76
2021/10/15 12:37:58;;;;;;;;;18.25;16.75;;;;;17.37;55.94;101188.91;4993089;28;46506;-78